sensor_id;sensor_type;location;lat;lon;timestamp;temperature;humidity
61896;DHT22;47835;52.778;5.956;2022-07-19T00:01:58;23.50;91.60
61896;DHT22;47835;52.778;5.956;2022-07-19T00:04:37;23.50;91.60
61896;DHT22;47835;52.778;5.956;2022-07-19T00:07:03;23.50;91.60
61896;DHT22;47835;52.778;5.956;2022-07-19T00:09:29;23.50;91.50
61896;DHT22;47835;52.778;5.956;2022-07-19T00:11:55;23.50;91.50
61896;DHT22;47835;52.778;5.956;2022-07-19T00:14:21;23.40;91.40
61896;DHT22;47835;52.778;5.956;2022-07-19T00:16:47;23.50;91.40
61896;DHT22;47835;52.778;5.956;2022-07-19T00:19:12;23.50;91.40
61896;DHT22;47835;52.778;5.956;2022-07-19T00:21:43;23.50;91.40
61896;DHT22;47835;52.778;5.956;2022-07-19T00:24:29;23.40;91.40
61896;DHT22;47835;52.778;5.956;2022-07-19T00:26:54;23.40;91.40
61896;DHT22;47835;52.778;5.956;2022-07-19T00:29:20;23.40;91.30
61896;DHT22;47835;52.778;5.956;2022-07-19T00:31:45;23.40;91.30
61896;DHT22;47835;52.778;5.956;2022-07-19T00:34:11;23.40;91.30
61896;DHT22;47835;52.778;5.956;2022-07-19T00:36:36;23.40;91.30
61896;DHT22;47835;52.778;5.956;2022-07-19T00:39:03;23.40;91.30
61896;DHT22;47835;52.778;5.956;2022-07-19T00:41:28;23.40;91.30
61896;DHT22;47835;52.778;5.956;2022-07-19T00:43:55;23.40;91.10
61896;DHT22;47835;52.778;5.956;2022-07-19T00:46:24;23.40;91.10
61896;DHT22;47835;52.778;5.956;2022-07-19T00:48:50;23.40;91.10
61896;DHT22;47835;52.778;5.956;2022-07-19T00:51:17;23.40;91.10
61896;DHT22;47835;52.778;5.956;2022-07-19T00:53:43;23.40;91.10
61896;DHT22;47835;52.778;5.956;2022-07-19T00:56:11;23.30;91.00
61896;DHT22;47835;52.778;5.956;2022-07-19T00:58:39;23.30;91.10
61896;DHT22;47835;52.778;5.956;2022-07-19T01:01:07;23.40;91.10
61896;DHT22;47835;52.778;5.956;2022-07-19T01:03:38;23.30;91.00
61896;DHT22;47835;52.778;5.956;2022-07-19T01:06:05;23.30;90.90
61896;DHT22;47835;52.778;5.956;2022-07-19T01:08:30;23.30;90.90
61896;DHT22;47835;52.778;5.956;2022-07-19T01:10:56;23.30;90.80
61896;DHT22;47835;52.778;5.956;2022-07-19T01:13:23;23.30;90.80
61896;DHT22;47835;52.778;5.956;2022-07-19T01:15:48;23.30;90.80
61896;DHT22;47835;52.778;5.956;2022-07-19T01:18:14;23.30;90.70
61896;DHT22;47835;52.778;5.956;2022-07-19T01:20:39;23.30;90.70
61896;DHT22;47835;52.778;5.956;2022-07-19T01:23:05;23.30;90.60
61896;DHT22;47835;52.778;5.956;2022-07-19T01:25:33;23.30;90.60
61896;DHT22;47835;52.778;5.956;2022-07-19T01:28:00;23.30;90.60
61896;DHT22;47835;52.778;5.956;2022-07-19T01:30:26;23.30;90.60
61896;DHT22;47835;52.778;5.956;2022-07-19T01:32:56;23.30;90.50
61896;DHT22;47835;52.778;5.956;2022-07-19T01:35:21;23.30;90.50
61896;DHT22;47835;52.778;5.956;2022-07-19T01:37:48;23.30;90.40
61896;DHT22;47835;52.778;5.956;2022-07-19T01:40:15;23.30;90.50
61896;DHT22;47835;52.778;5.956;2022-07-19T01:42:42;23.30;90.40
61896;DHT22;47835;52.778;5.956;2022-07-19T01:45:09;23.20;90.40
61896;DHT22;47835;52.778;5.956;2022-07-19T01:47:35;23.20;90.40
61896;DHT22;47835;52.778;5.956;2022-07-19T01:50:02;23.20;90.70
61896;DHT22;47835;52.778;5.956;2022-07-19T01:52:28;23.20;90.50
61896;DHT22;47835;52.778;5.956;2022-07-19T01:54:54;23.20;90.40
61896;DHT22;47835;52.778;5.956;2022-07-19T01:57:19;23.20;90.30
61896;DHT22;47835;52.778;5.956;2022-07-19T01:59:45;23.20;90.30
61896;DHT22;47835;52.778;5.956;2022-07-19T02:02:11;23.20;90.30
61896;DHT22;47835;52.778;5.956;2022-07-19T02:04:37;23.20;90.20
61896;DHT22;47835;52.778;5.956;2022-07-19T02:07:02;23.20;90.20
61896;DHT22;47835;52.778;5.956;2022-07-19T02:09:28;23.20;90.20
61896;DHT22;47835;52.778;5.956;2022-07-19T02:11:54;23.20;90.20
61896;DHT22;47835;52.778;5.956;2022-07-19T02:14:20;23.20;90.20
61896;DHT22;47835;52.778;5.956;2022-07-19T02:16:45;23.10;90.20
61896;DHT22;47835;52.778;5.956;2022-07-19T02:19:11;23.10;90.20
61896;DHT22;47835;52.778;5.956;2022-07-19T02:21:38;23.20;90.20
61896;DHT22;47835;52.778;5.956;2022-07-19T02:24:05;23.20;90.10
61896;DHT22;47835;52.778;5.956;2022-07-19T02:26:32;23.20;90.10
61896;DHT22;47835;52.778;5.956;2022-07-19T02:28:58;23.20;90.10
61896;DHT22;47835;52.778;5.956;2022-07-19T02:31:24;23.10;90.10
61896;DHT22;47835;52.778;5.956;2022-07-19T02:33:49;23.10;90.10
61896;DHT22;47835;52.778;5.956;2022-07-19T02:36:16;23.10;90.00
61896;DHT22;47835;52.778;5.956;2022-07-19T02:38:43;23.10;89.90
61896;DHT22;47835;52.778;5.956;2022-07-19T02:41:11;23.10;90.30
61896;DHT22;47835;52.778;5.956;2022-07-19T02:43:39;23.10;89.60
61896;DHT22;47835;52.778;5.956;2022-07-19T02:46:04;23.10;89.50
61896;DHT22;47835;52.778;5.956;2022-07-19T02:48:30;23.10;89.60
61896;DHT22;47835;52.778;5.956;2022-07-19T02:50:55;23.10;89.50
61896;DHT22;47835;52.778;5.956;2022-07-19T02:53:21;23.10;89.30
61896;DHT22;47835;52.778;5.956;2022-07-19T02:55:47;23.10;89.30
61896;DHT22;47835;52.778;5.956;2022-07-19T02:58:12;23.10;89.30
61896;DHT22;47835;52.778;5.956;2022-07-19T03:00:38;23.00;89.30
61896;DHT22;47835;52.778;5.956;2022-07-19T03:03:03;23.10;89.20
61896;DHT22;47835;52.778;5.956;2022-07-19T03:05:48;23.00;89.20
61896;DHT22;47835;52.778;5.956;2022-07-19T03:08:14;23.00;89.10
61896;DHT22;47835;52.778;5.956;2022-07-19T03:10:40;23.00;89.00
61896;DHT22;47835;52.778;5.956;2022-07-19T03:13:06;23.00;88.90
61896;DHT22;47835;52.778;5.956;2022-07-19T03:15:31;23.00;88.80
61896;DHT22;47835;52.778;5.956;2022-07-19T03:17:57;23.00;88.80
61896;DHT22;47835;52.778;5.956;2022-07-19T03:20:23;23.00;88.80
61896;DHT22;47835;52.778;5.956;2022-07-19T03:22:48;23.00;88.70
61896;DHT22;47835;52.778;5.956;2022-07-19T03:25:14;23.00;88.70
61896;DHT22;47835;52.778;5.956;2022-07-19T03:27:40;23.00;88.70
61896;DHT22;47835;52.778;5.956;2022-07-19T03:30:06;23.00;88.50
61896;DHT22;47835;52.778;5.956;2022-07-19T03:32:32;23.00;88.50
61896;DHT22;47835;52.778;5.956;2022-07-19T03:34:57;23.00;88.40
61896;DHT22;47835;52.778;5.956;2022-07-19T03:37:23;23.00;88.30
61896;DHT22;47835;52.778;5.956;2022-07-19T03:39:48;23.00;88.30
61896;DHT22;47835;52.778;5.956;2022-07-19T03:42:14;23.00;88.30
61896;DHT22;47835;52.778;5.956;2022-07-19T03:44:39;23.00;88.20
61896;DHT22;47835;52.778;5.956;2022-07-19T03:47:05;23.00;88.10
61896;DHT22;47835;52.778;5.956;2022-07-19T03:49:31;23.00;88.00
61896;DHT22;47835;52.778;5.956;2022-07-19T03:51:59;23.00;87.90
61896;DHT22;47835;52.778;5.956;2022-07-19T03:54:25;23.00;87.90
61896;DHT22;47835;52.778;5.956;2022-07-19T03:56:50;23.00;87.80
61896;DHT22;47835;52.778;5.956;2022-07-19T03:59:16;22.90;87.70
61896;DHT22;47835;52.778;5.956;2022-07-19T04:01:41;22.90;87.70
61896;DHT22;47835;52.778;5.956;2022-07-19T04:04:07;23.00;87.70
61896;DHT22;47835;52.778;5.956;2022-07-19T04:06:33;22.90;82.60
61896;DHT22;47835;52.778;5.956;2022-07-19T04:08:59;22.80;80.20
61896;DHT22;47835;52.778;5.956;2022-07-19T04:11:24;22.70;79.40
61896;DHT22;47835;52.778;5.956;2022-07-19T04:13:50;22.60;79.40
61896;DHT22;47835;52.778;5.956;2022-07-19T04:16:15;22.50;79.60
61896;DHT22;47835;52.778;5.956;2022-07-19T04:18:41;22.50;79.60
61896;DHT22;47835;52.778;5.956;2022-07-19T04:21:08;22.40;79.00
61896;DHT22;47835;52.778;5.956;2022-07-19T04:23:33;22.30;79.20
61896;DHT22;47835;52.778;5.956;2022-07-19T04:25:59;22.30;80.00
61896;DHT22;47835;52.778;5.956;2022-07-19T04:28:24;22.20;80.20
61896;DHT22;47835;52.778;5.956;2022-07-19T04:30:50;22.20;81.10
61896;DHT22;47835;52.778;5.956;2022-07-19T04:33:19;22.10;81.70
61896;DHT22;47835;52.778;5.956;2022-07-19T04:35:45;22.10;82.00
61896;DHT22;47835;52.778;5.956;2022-07-19T04:38:10;22.00;82.20
61896;DHT22;47835;52.778;5.956;2022-07-19T04:40:36;22.00;82.20
61896;DHT22;47835;52.778;5.956;2022-07-19T04:43:02;21.90;82.50
61896;DHT22;47835;52.778;5.956;2022-07-19T04:45:28;21.90;82.60
61896;DHT22;47835;52.778;5.956;2022-07-19T04:47:56;21.90;82.60
61896;DHT22;47835;52.778;5.956;2022-07-19T04:50:21;21.80;82.70
61896;DHT22;47835;52.778;5.956;2022-07-19T04:52:47;21.80;82.70
61896;DHT22;47835;52.778;5.956;2022-07-19T04:55:13;21.80;82.80
61896;DHT22;47835;52.778;5.956;2022-07-19T04:57:38;21.80;82.90
61896;DHT22;47835;52.778;5.956;2022-07-19T05:00:06;21.80;82.80
61896;DHT22;47835;52.778;5.956;2022-07-19T05:02:35;21.80;82.60
61896;DHT22;47835;52.778;5.956;2022-07-19T05:05:00;21.80;83.10
61896;DHT22;47835;52.778;5.956;2022-07-19T05:07:26;21.80;83.40
61896;DHT22;47835;52.778;5.956;2022-07-19T05:09:53;21.80;83.30
61896;DHT22;47835;52.778;5.956;2022-07-19T05:12:18;21.80;83.40
61896;DHT22;47835;52.778;5.956;2022-07-19T05:14:44;21.80;83.40
61896;DHT22;47835;52.778;5.956;2022-07-19T05:17:09;21.80;83.60
61896;DHT22;47835;52.778;5.956;2022-07-19T05:19:35;21.80;84.50
61896;DHT22;47835;52.778;5.956;2022-07-19T05:22:00;21.80;84.70
61896;DHT22;47835;52.778;5.956;2022-07-19T05:24:26;21.90;84.80
61896;DHT22;47835;52.778;5.956;2022-07-19T05:26:51;21.90;85.10
61896;DHT22;47835;52.778;5.956;2022-07-19T05:29:17;22.00;85.10
61896;DHT22;47835;52.778;5.956;2022-07-19T05:31:42;22.00;85.20
61896;DHT22;47835;52.778;5.956;2022-07-19T05:34:08;22.10;85.20
61896;DHT22;47835;52.778;5.956;2022-07-19T05:36:33;22.10;85.20
61896;DHT22;47835;52.778;5.956;2022-07-19T05:38:59;22.20;85.60
61896;DHT22;47835;52.778;5.956;2022-07-19T05:41:24;22.20;85.90
61896;DHT22;47835;52.778;5.956;2022-07-19T05:43:51;22.20;86.00
61896;DHT22;47835;52.778;5.956;2022-07-19T05:46:17;22.20;86.10
61896;DHT22;47835;52.778;5.956;2022-07-19T05:48:45;22.30;86.50
61896;DHT22;47835;52.778;5.956;2022-07-19T05:51:11;22.30;86.60
61896;DHT22;47835;52.778;5.956;2022-07-19T05:53:37;22.30;87.40
61896;DHT22;47835;52.778;5.956;2022-07-19T05:56:04;22.40;88.50
61896;DHT22;47835;52.778;5.956;2022-07-19T05:58:29;22.30;88.20
61896;DHT22;47835;52.778;5.956;2022-07-19T06:00:55;22.30;87.50
61896;DHT22;47835;52.778;5.956;2022-07-19T06:03:39;22.30;87.90
61896;DHT22;47835;52.778;5.956;2022-07-19T06:06:07;22.30;88.40
61896;DHT22;47835;52.778;5.956;2022-07-19T06:08:33;22.30;88.70
61896;DHT22;47835;52.778;5.956;2022-07-19T06:11:01;22.40;89.00
61896;DHT22;47835;52.778;5.956;2022-07-19T06:13:29;22.40;89.80
61896;DHT22;47835;52.778;5.956;2022-07-19T06:15:57;22.40;89.80
61896;DHT22;47835;52.778;5.956;2022-07-19T06:18:22;22.40;89.40
61896;DHT22;47835;52.778;5.956;2022-07-19T06:20:48;22.40;89.30
61896;DHT22;47835;52.778;5.956;2022-07-19T06:23:21;22.40;89.40
61896;DHT22;47835;52.778;5.956;2022-07-19T06:25:46;22.50;89.40
61896;DHT22;47835;52.778;5.956;2022-07-19T06:28:12;22.50;89.90
61896;DHT22;47835;52.778;5.956;2022-07-19T06:30:38;22.50;90.40
61896;DHT22;47835;52.778;5.956;2022-07-19T06:33:03;22.60;90.30
61896;DHT22;47835;52.778;5.956;2022-07-19T06:35:29;22.60;90.30
61896;DHT22;47835;52.778;5.956;2022-07-19T06:37:54;22.60;90.20
61896;DHT22;47835;52.778;5.956;2022-07-19T06:40:20;22.60;90.10
61896;DHT22;47835;52.778;5.956;2022-07-19T06:42:46;22.70;90.00
61896;DHT22;47835;52.778;5.956;2022-07-19T06:45:11;22.70;90.00
61896;DHT22;47835;52.778;5.956;2022-07-19T06:47:37;22.70;89.90
61896;DHT22;47835;52.778;5.956;2022-07-19T06:50:06;22.70;90.00
61896;DHT22;47835;52.778;5.956;2022-07-19T06:52:32;22.70;90.00
61896;DHT22;47835;52.778;5.956;2022-07-19T06:54:57;22.70;90.40
61896;DHT22;47835;52.778;5.956;2022-07-19T06:57:23;22.80;90.40
61896;DHT22;47835;52.778;5.956;2022-07-19T06:59:49;22.80;90.70
61896;DHT22;47835;52.778;5.956;2022-07-19T07:02:14;22.90;90.80
61896;DHT22;47835;52.778;5.956;2022-07-19T07:04:40;22.90;90.40
61896;DHT22;47835;52.778;5.956;2022-07-19T07:07:05;22.90;90.20
61896;DHT22;47835;52.778;5.956;2022-07-19T07:09:31;22.90;90.90
61896;DHT22;47835;52.778;5.956;2022-07-19T07:11:56;22.90;90.50
61896;DHT22;47835;52.778;5.956;2022-07-19T07:14:22;23.00;90.70
61896;DHT22;47835;52.778;5.956;2022-07-19T07:16:48;23.00;90.70
61896;DHT22;47835;52.778;5.956;2022-07-19T07:19:13;23.00;90.90
61896;DHT22;47835;52.778;5.956;2022-07-19T07:21:39;23.00;91.70
61896;DHT22;47835;52.778;5.956;2022-07-19T07:24:05;23.00;91.40
61896;DHT22;47835;52.778;5.956;2022-07-19T07:26:31;23.00;91.50
61896;DHT22;47835;52.778;5.956;2022-07-19T07:28:57;23.10;91.90
61896;DHT22;47835;52.778;5.956;2022-07-19T07:31:23;23.10;90.80
61896;DHT22;47835;52.778;5.956;2022-07-19T07:33:49;23.00;90.90
61896;DHT22;47835;52.778;5.956;2022-07-19T07:36:15;23.10;91.20
61896;DHT22;47835;52.778;5.956;2022-07-19T07:38:40;23.10;91.50
61896;DHT22;47835;52.778;5.956;2022-07-19T07:41:07;23.20;91.50
61896;DHT22;47835;52.778;5.956;2022-07-19T07:43:32;23.10;91.10
61896;DHT22;47835;52.778;5.956;2022-07-19T07:45:58;23.10;90.80
61896;DHT22;47835;52.778;5.956;2022-07-19T07:48:24;23.20;90.70
61896;DHT22;47835;52.778;5.956;2022-07-19T07:50:50;23.20;91.90
61896;DHT22;47835;52.778;5.956;2022-07-19T07:53:15;23.10;92.20
61896;DHT22;47835;52.778;5.956;2022-07-19T07:55:41;23.20;93.00
61896;DHT22;47835;52.778;5.956;2022-07-19T07:58:08;23.30;93.20
61896;DHT22;47835;52.778;5.956;2022-07-19T08:00:35;23.30;92.50
61896;DHT22;47835;52.778;5.956;2022-07-19T08:03:00;23.30;92.10
61896;DHT22;47835;52.778;5.956;2022-07-19T08:05:26;23.30;91.80
61896;DHT22;47835;52.778;5.956;2022-07-19T08:07:52;23.30;92.40
61896;DHT22;47835;52.778;5.956;2022-07-19T08:10:17;23.30;92.20
61896;DHT22;47835;52.778;5.956;2022-07-19T08:12:43;23.30;91.70
61896;DHT22;47835;52.778;5.956;2022-07-19T08:15:09;23.30;92.60
61896;DHT22;47835;52.778;5.956;2022-07-19T08:17:35;23.30;92.30
61896;DHT22;47835;52.778;5.956;2022-07-19T08:20:01;23.30;92.80
61896;DHT22;47835;52.778;5.956;2022-07-19T08:22:27;23.40;91.60
61896;DHT22;47835;52.778;5.956;2022-07-19T08:24:55;23.30;91.40
61896;DHT22;47835;52.778;5.956;2022-07-19T08:27:20;23.40;91.40
61896;DHT22;47835;52.778;5.956;2022-07-19T08:29:46;23.40;91.60
61896;DHT22;47835;52.778;5.956;2022-07-19T08:32:12;23.40;92.60
61896;DHT22;47835;52.778;5.956;2022-07-19T08:34:37;23.40;92.50
61896;DHT22;47835;52.778;5.956;2022-07-19T08:37:03;23.40;92.20
61896;DHT22;47835;52.778;5.956;2022-07-19T08:39:29;23.40;92.20
61896;DHT22;47835;52.778;5.956;2022-07-19T08:41:55;23.40;91.80
61896;DHT22;47835;52.778;5.956;2022-07-19T08:44:22;23.40;92.20
61896;DHT22;47835;52.778;5.956;2022-07-19T08:46:48;23.50;92.20
61896;DHT22;47835;52.778;5.956;2022-07-19T08:49:14;23.50;91.60
61896;DHT22;47835;52.778;5.956;2022-07-19T08:51:41;23.40;91.50
61896;DHT22;47835;52.778;5.956;2022-07-19T08:54:07;23.50;91.60
61896;DHT22;47835;52.778;5.956;2022-07-19T08:56:33;23.40;91.30
61896;DHT22;47835;52.778;5.956;2022-07-19T08:59:17;23.40;91.30
61896;DHT22;47835;52.778;5.956;2022-07-19T09:01:45;23.40;91.10
61896;DHT22;47835;52.778;5.956;2022-07-19T09:06:50;23.50;91.20
61896;DHT22;47835;52.778;5.956;2022-07-19T09:09:19;23.50;91.90
61896;DHT22;47835;52.778;5.956;2022-07-19T09:11:47;23.50;91.30
61896;DHT22;47835;52.778;5.956;2022-07-19T09:14:16;23.50;91.50
61896;DHT22;47835;52.778;5.956;2022-07-19T09:17:07;23.50;91.40
61896;DHT22;47835;52.778;5.956;2022-07-19T09:19:44;23.50;91.10
61896;DHT22;47835;52.778;5.956;2022-07-19T09:22:12;23.50;91.50
61896;DHT22;47835;52.778;5.956;2022-07-19T09:24:43;23.50;91.60
61896;DHT22;47835;52.778;5.956;2022-07-19T09:29:39;23.50;93.40
61896;DHT22;47835;52.778;5.956;2022-07-19T09:32:14;23.60;93.90
61896;DHT22;47835;52.778;5.956;2022-07-19T09:37:15;23.60;94.40
61896;DHT22;47835;52.778;5.956;2022-07-19T09:39:45;23.60;94.80
61896;DHT22;47835;52.778;5.956;2022-07-19T09:42:12;23.70;96.00
61896;DHT22;47835;52.778;5.956;2022-07-19T09:44:38;23.70;95.10
61896;DHT22;47835;52.778;5.956;2022-07-19T09:47:04;23.70;94.70
61896;DHT22;47835;52.778;5.956;2022-07-19T09:49:29;23.70;95.10
61896;DHT22;47835;52.778;5.956;2022-07-19T09:51:55;23.70;94.00
61896;DHT22;47835;52.778;5.956;2022-07-19T09:54:30;23.70;94.20
61896;DHT22;47835;52.778;5.956;2022-07-19T09:56:58;23.70;94.50
61896;DHT22;47835;52.778;5.956;2022-07-19T09:59:25;23.80;94.70
61896;DHT22;47835;52.778;5.956;2022-07-19T10:01:53;23.80;94.40
61896;DHT22;47835;52.778;5.956;2022-07-19T10:04:21;23.80;95.00
61896;DHT22;47835;52.778;5.956;2022-07-19T10:06:49;23.80;94.70
61896;DHT22;47835;52.778;5.956;2022-07-19T10:09:16;23.80;95.10
61896;DHT22;47835;52.778;5.956;2022-07-19T10:11:43;23.80;94.80
61896;DHT22;47835;52.778;5.956;2022-07-19T10:14:09;23.80;95.00
61896;DHT22;47835;52.778;5.956;2022-07-19T10:19:19;23.80;94.70
61896;DHT22;47835;52.778;5.956;2022-07-19T10:21:48;23.80;94.50
61896;DHT22;47835;52.778;5.956;2022-07-19T10:24:14;23.80;93.80
61896;DHT22;47835;52.778;5.956;2022-07-19T10:26:42;23.80;94.30
61896;DHT22;47835;52.778;5.956;2022-07-19T10:29:12;23.80;94.30
61896;DHT22;47835;52.778;5.956;2022-07-19T10:31:38;23.80;94.10
61896;DHT22;47835;52.778;5.956;2022-07-19T10:34:07;23.80;93.90
61896;DHT22;47835;52.778;5.956;2022-07-19T10:36:34;23.80;93.80
61896;DHT22;47835;52.778;5.956;2022-07-19T10:42:15;23.80;93.00
61896;DHT22;47835;52.778;5.956;2022-07-19T10:52:38;23.80;94.20
61896;DHT22;47835;52.778;5.956;2022-07-19T11:00:44;23.80;93.70
61896;DHT22;47835;52.778;5.956;2022-07-19T11:05:53;23.80;94.00
61896;DHT22;47835;52.778;5.956;2022-07-19T11:08:39;23.80;93.80
61896;DHT22;47835;52.778;5.956;2022-07-19T11:11:11;23.80;93.70
61896;DHT22;47835;52.778;5.956;2022-07-19T11:13:39;23.80;93.70
61896;DHT22;47835;52.778;5.956;2022-07-19T11:16:07;23.80;93.60
61896;DHT22;47835;52.778;5.956;2022-07-19T11:18:33;23.80;93.70
61896;DHT22;47835;52.778;5.956;2022-07-19T11:21:01;23.80;93.80
61896;DHT22;47835;52.778;5.956;2022-07-19T11:23:33;23.80;93.40
61896;DHT22;47835;52.778;5.956;2022-07-19T11:26:06;23.80;95.10
61896;DHT22;47835;52.778;5.956;2022-07-19T11:28:32;23.90;95.70
61896;DHT22;47835;52.778;5.956;2022-07-19T11:30:58;23.90;95.50
61896;DHT22;47835;52.778;5.956;2022-07-19T11:33:24;24.00;95.90
61896;DHT22;47835;52.778;5.956;2022-07-19T11:35:57;24.10;95.80
61896;DHT22;47835;52.778;5.956;2022-07-19T11:38:33;24.10;96.90
61896;DHT22;47835;52.778;5.956;2022-07-19T11:40:58;24.10;96.70
61896;DHT22;47835;52.778;5.956;2022-07-19T11:43:24;24.10;96.20
61896;DHT22;47835;52.778;5.956;2022-07-19T11:45:50;24.10;95.80
61896;DHT22;47835;52.778;5.956;2022-07-19T11:48:25;24.20;96.00
61896;DHT22;47835;52.778;5.956;2022-07-19T11:51:17;24.20;95.50
61896;DHT22;47835;52.778;5.956;2022-07-19T11:53:49;24.20;96.10
61896;DHT22;47835;52.778;5.956;2022-07-19T11:56:19;24.20;95.80
61896;DHT22;47835;52.778;5.956;2022-07-19T11:58:45;24.20;96.00
61896;DHT22;47835;52.778;5.956;2022-07-19T12:01:11;24.20;95.90
61896;DHT22;47835;52.778;5.956;2022-07-19T12:03:37;24.20;95.80
61896;DHT22;47835;52.778;5.956;2022-07-19T12:06:03;24.30;95.80
61896;DHT22;47835;52.778;5.956;2022-07-19T12:11:24;24.30;95.50
61896;DHT22;47835;52.778;5.956;2022-07-19T12:13:51;24.30;95.50
61896;DHT22;47835;52.778;5.956;2022-07-19T12:16:19;24.30;95.50
61896;DHT22;47835;52.778;5.956;2022-07-19T12:24:12;24.40;94.80
61896;DHT22;47835;52.778;5.956;2022-07-19T12:26:40;24.40;95.20
61896;DHT22;47835;52.778;5.956;2022-07-19T12:29:20;24.40;95.40
61896;DHT22;47835;52.778;5.956;2022-07-19T12:31:47;24.40;95.70
61896;DHT22;47835;52.778;5.956;2022-07-19T12:34:14;24.40;95.00
61896;DHT22;47835;52.778;5.956;2022-07-19T12:36:39;24.40;95.00
61896;DHT22;47835;52.778;5.956;2022-07-19T12:39:20;24.40;95.20
61896;DHT22;47835;52.778;5.956;2022-07-19T12:41:57;24.40;95.40
61896;DHT22;47835;52.778;5.956;2022-07-19T12:44:25;24.50;95.80
61896;DHT22;47835;52.778;5.956;2022-07-19T12:46:51;24.50;96.40
61896;DHT22;47835;52.778;5.956;2022-07-19T12:49:17;24.50;95.80
61896;DHT22;47835;52.778;5.956;2022-07-19T12:51:43;24.50;96.20
61896;DHT22;47835;52.778;5.956;2022-07-19T12:54:13;24.60;96.00
61896;DHT22;47835;52.778;5.956;2022-07-19T12:56:39;24.50;97.00
61896;DHT22;47835;52.778;5.956;2022-07-19T12:59:05;24.60;97.20
61896;DHT22;47835;52.778;5.956;2022-07-19T13:01:50;24.60;96.80
61896;DHT22;47835;52.778;5.956;2022-07-19T13:04:16;24.60;96.70
61896;DHT22;47835;52.778;5.956;2022-07-19T13:06:41;24.70;98.90
61896;DHT22;47835;52.778;5.956;2022-07-19T13:09:07;24.70;98.60
61896;DHT22;47835;52.778;5.956;2022-07-19T13:11:35;24.70;99.90
61896;DHT22;47835;52.778;5.956;2022-07-19T13:14:02;24.70;98.30
61896;DHT22;47835;52.778;5.956;2022-07-19T13:16:28;24.80;98.90
61896;DHT22;47835;52.778;5.956;2022-07-19T13:18:54;24.80;99.00
61896;DHT22;47835;52.778;5.956;2022-07-19T13:21:20;24.80;99.50
61896;DHT22;47835;52.778;5.956;2022-07-19T13:23:47;24.80;99.90
61896;DHT22;47835;52.778;5.956;2022-07-19T13:26:12;24.90;99.90
61896;DHT22;47835;52.778;5.956;2022-07-19T13:28:38;24.90;99.90
61896;DHT22;47835;52.778;5.956;2022-07-19T13:31:06;24.90;99.90
61896;DHT22;47835;52.778;5.956;2022-07-19T13:33:32;24.90;99.90
61896;DHT22;47835;52.778;5.956;2022-07-19T13:35:57;24.80;99.90
61896;DHT22;47835;52.778;5.956;2022-07-19T13:38:23;24.80;99.90
61896;DHT22;47835;52.778;5.956;2022-07-19T13:40:48;24.80;99.90
61896;DHT22;47835;52.778;5.956;2022-07-19T13:43:14;24.80;99.90
61896;DHT22;47835;52.778;5.956;2022-07-19T13:45:42;24.80;99.90
61896;DHT22;47835;52.778;5.956;2022-07-19T13:48:08;24.80;99.90
61896;DHT22;47835;52.778;5.956;2022-07-19T13:50:33;24.80;99.90
61896;DHT22;47835;52.778;5.956;2022-07-19T13:53:00;24.70;99.90
61896;DHT22;47835;52.778;5.956;2022-07-19T13:55:27;24.70;99.90
61896;DHT22;47835;52.778;5.956;2022-07-19T13:57:52;24.70;99.90
61896;DHT22;47835;52.778;5.956;2022-07-19T14:00:18;24.70;99.20
61896;DHT22;47835;52.778;5.956;2022-07-19T14:02:46;24.70;99.90
61896;DHT22;47835;52.778;5.956;2022-07-19T14:05:12;24.70;99.80
61896;DHT22;47835;52.778;5.956;2022-07-19T14:07:38;24.70;99.90
61896;DHT22;47835;52.778;5.956;2022-07-19T14:10:04;24.70;99.90
61896;DHT22;47835;52.778;5.956;2022-07-19T14:12:30;24.70;99.90
61896;DHT22;47835;52.778;5.956;2022-07-19T14:14:56;24.70;99.90
61896;DHT22;47835;52.778;5.956;2022-07-19T14:17:22;24.70;99.90
61896;DHT22;47835;52.778;5.956;2022-07-19T14:19:49;24.70;99.90
61896;DHT22;47835;52.778;5.956;2022-07-19T14:22:15;24.70;99.90
61896;DHT22;47835;52.778;5.956;2022-07-19T14:24:41;24.70;99.90
61896;DHT22;47835;52.778;5.956;2022-07-19T14:27:07;24.70;99.90
61896;DHT22;47835;52.778;5.956;2022-07-19T14:29:33;24.70;99.90
61896;DHT22;47835;52.778;5.956;2022-07-19T14:31:59;24.70;99.90
61896;DHT22;47835;52.778;5.956;2022-07-19T14:34:25;24.70;99.90
61896;DHT22;47835;52.778;5.956;2022-07-19T14:36:51;24.70;99.90
61896;DHT22;47835;52.778;5.956;2022-07-19T14:39:16;24.70;99.90
61896;DHT22;47835;52.778;5.956;2022-07-19T14:41:42;24.70;99.80
61896;DHT22;47835;52.778;5.956;2022-07-19T14:44:11;24.70;99.60
61896;DHT22;47835;52.778;5.956;2022-07-19T14:46:37;24.70;99.30
61896;DHT22;47835;52.778;5.956;2022-07-19T14:49:02;24.70;99.10
61896;DHT22;47835;52.778;5.956;2022-07-19T14:51:28;24.70;99.40
61896;DHT22;47835;52.778;5.956;2022-07-19T14:53:54;24.70;98.70
61896;DHT22;47835;52.778;5.956;2022-07-19T14:56:20;24.70;98.70
61896;DHT22;47835;52.778;5.956;2022-07-19T14:58:45;24.70;99.90
61896;DHT22;47835;52.778;5.956;2022-07-19T15:01:11;24.70;99.90
61896;DHT22;47835;52.778;5.956;2022-07-19T15:03:37;24.70;99.70
61896;DHT22;47835;52.778;5.956;2022-07-19T15:06:03;24.70;99.30
61896;DHT22;47835;52.778;5.956;2022-07-19T15:08:28;24.80;98.90
61896;DHT22;47835;52.778;5.956;2022-07-19T15:11:05;24.70;98.90
61896;DHT22;47835;52.778;5.956;2022-07-19T15:14:19;24.70;98.70
61896;DHT22;47835;52.778;5.956;2022-07-19T15:16:45;24.70;98.50
61896;DHT22;47835;52.778;5.956;2022-07-19T15:19:11;24.70;98.40
61896;DHT22;47835;52.778;5.956;2022-07-19T15:21:37;24.70;98.30
61896;DHT22;47835;52.778;5.956;2022-07-19T15:24:36;24.70;98.20
61896;DHT22;47835;52.778;5.956;2022-07-19T15:27:37;24.70;98.30
61896;DHT22;47835;52.778;5.956;2022-07-19T15:30:04;24.80;97.90
61896;DHT22;47835;52.778;5.956;2022-07-19T15:32:29;24.70;98.10
61896;DHT22;47835;52.778;5.956;2022-07-19T15:34:55;24.70;98.00
61896;DHT22;47835;52.778;5.956;2022-07-19T15:37:20;24.80;98.10
61896;DHT22;47835;52.778;5.956;2022-07-19T15:39:46;24.80;98.30
61896;DHT22;47835;52.778;5.956;2022-07-19T15:42:11;24.80;98.60
61896;DHT22;47835;52.778;5.956;2022-07-19T15:44:37;24.90;98.70
61896;DHT22;47835;52.778;5.956;2022-07-19T15:47:03;24.80;98.80
61896;DHT22;47835;52.778;5.956;2022-07-19T15:49:28;24.80;98.30
61896;DHT22;47835;52.778;5.956;2022-07-19T15:51:54;24.90;98.60
61896;DHT22;47835;52.778;5.956;2022-07-19T15:54:20;24.90;98.40
61896;DHT22;47835;52.778;5.956;2022-07-19T15:56:48;24.90;98.30
61896;DHT22;47835;52.778;5.956;2022-07-19T15:59:13;24.90;98.60
61896;DHT22;47835;52.778;5.956;2022-07-19T16:01:39;24.90;98.50
61896;DHT22;47835;52.778;5.956;2022-07-19T16:04:05;24.90;98.60
61896;DHT22;47835;52.778;5.956;2022-07-19T16:06:30;24.90;98.60
61896;DHT22;47835;52.778;5.956;2022-07-19T16:08:56;24.90;98.60